sensor_id;sensor_type;location;lat;lon;timestamp;P1;durP1;ratioP1;P2;durP2;ratioP2
57567;SDS011;43403;51.948;5.922;2022-07-29T00:01:00;4.30;;;1.00;;
57567;SDS011;43403;51.948;5.922;2022-07-29T00:03:27;1.60;;;1.00;;
57567;SDS011;43403;51.948;5.922;2022-07-29T00:05:53;4.75;;;1.20;;
57567;SDS011;43403;51.948;5.922;2022-07-29T00:08:20;3.83;;;1.30;;
57567;SDS011;43403;51.948;5.922;2022-07-29T00:10:46;2.78;;;1.13;;
57567;SDS011;43403;51.948;5.922;2022-07-29T00:13:13;4.07;;;1.27;;
57567;SDS011;43403;51.948;5.922;2022-07-29T00:15:39;5.13;;;1.40;;
57567;SDS011;43403;51.948;5.922;2022-07-29T00:18:06;5.38;;;1.15;;
57567;SDS011;43403;51.948;5.922;2022-07-29T00:20:32;2.63;;;1.10;;
57567;SDS011;43403;51.948;5.922;2022-07-29T00:22:59;4.10;;;1.30;;
57567;SDS011;43403;51.948;5.922;2022-07-29T00:25:25;3.28;;;0.98;;
57567;SDS011;43403;51.948;5.922;2022-07-29T00:27:51;4.15;;;1.20;;
57567;SDS011;43403;51.948;5.922;2022-07-29T00:30:18;3.95;;;1.10;;
57567;SDS011;43403;51.948;5.922;2022-07-29T00:32:44;3.72;;;1.10;;
57567;SDS011;43403;51.948;5.922;2022-07-29T00:35:11;5.30;;;1.50;;
57567;SDS011;43403;51.948;5.922;2022-07-29T00:37:59;2.97;;;1.45;;
57567;SDS011;43403;51.948;5.922;2022-07-29T00:40:27;1.90;;;1.02;;
57567;SDS011;43403;51.948;5.922;2022-07-29T00:42:53;2.85;;;1.33;;
57567;SDS011;43403;51.948;5.922;2022-07-29T00:45:20;1.25;;;1.00;;
57567;SDS011;43403;51.948;5.922;2022-07-29T00:47:48;3.70;;;1.00;;
57567;SDS011;43403;51.948;5.922;2022-07-29T00:50:14;3.40;;;1.48;;
57567;SDS011;43403;51.948;5.922;2022-07-29T00:52:41;3.17;;;1.08;;
57567;SDS011;43403;51.948;5.922;2022-07-29T00:55:10;2.10;;;1.10;;
57567;SDS011;43403;51.948;5.922;2022-07-29T00:57:38;5.15;;;1.40;;
57567;SDS011;43403;51.948;5.922;2022-07-29T01:00:07;1.50;;;0.90;;
57567;SDS011;43403;51.948;5.922;2022-07-29T01:02:35;5.32;;;1.60;;
57567;SDS011;43403;51.948;5.922;2022-07-29T01:05:02;3.13;;;1.55;;
57567;SDS011;43403;51.948;5.922;2022-07-29T01:07:31;4.20;;;1.40;;
57567;SDS011;43403;51.948;5.922;2022-07-29T01:10:03;6.30;;;1.38;;
57567;SDS011;43403;51.948;5.922;2022-07-29T01:12:30;4.28;;;1.50;;
57567;SDS011;43403;51.948;5.922;2022-07-29T01:15:00;3.55;;;1.40;;
57567;SDS011;43403;51.948;5.922;2022-07-29T01:20:07;2.67;;;1.40;;
57567;SDS011;43403;51.948;5.922;2022-07-29T01:31:13;4.68;;;1.80;;
57567;SDS011;43403;51.948;5.922;2022-07-29T01:33:55;3.45;;;1.25;;
57567;SDS011;43403;51.948;5.922;2022-07-29T01:36:28;5.22;;;1.70;;
57567;SDS011;43403;51.948;5.922;2022-07-29T01:39:30;4.82;;;1.58;;
57567;SDS011;43403;51.948;5.922;2022-07-29T01:42:06;8.25;;;2.00;;
57567;SDS011;43403;51.948;5.922;2022-07-29T01:47:42;6.13;;;1.90;;
57567;SDS011;43403;51.948;5.922;2022-07-29T01:50:14;3.85;;;2.10;;
57567;SDS011;43403;51.948;5.922;2022-07-29T01:52:45;5.13;;;2.17;;
57567;SDS011;43403;51.948;5.922;2022-07-29T01:55:16;4.53;;;1.88;;
57567;SDS011;43403;51.948;5.922;2022-07-29T01:57:46;9.38;;;1.98;;
57567;SDS011;43403;51.948;5.922;2022-07-29T02:00:14;4.15;;;1.67;;
57567;SDS011;43403;51.948;5.922;2022-07-29T02:02:42;5.00;;;1.63;;
57567;SDS011;43403;51.948;5.922;2022-07-29T02:05:12;5.03;;;1.80;;
57567;SDS011;43403;51.948;5.922;2022-07-29T02:07:42;3.97;;;1.80;;
57567;SDS011;43403;51.948;5.922;2022-07-29T02:10:10;3.65;;;1.70;;
57567;SDS011;43403;51.948;5.922;2022-07-29T02:12:39;7.80;;;1.75;;
57567;SDS011;43403;51.948;5.922;2022-07-29T02:15:16;4.70;;;1.70;;
57567;SDS011;43403;51.948;5.922;2022-07-29T02:17:50;6.13;;;1.77;;
57567;SDS011;43403;51.948;5.922;2022-07-29T02:20:22;4.18;;;1.70;;
57567;SDS011;43403;51.948;5.922;2022-07-29T02:22:51;5.45;;;1.80;;
57567;SDS011;43403;51.948;5.922;2022-07-29T02:25:20;2.65;;;1.67;;
57567;SDS011;43403;51.948;5.922;2022-07-29T02:27:49;4.95;;;1.88;;
57567;SDS011;43403;51.948;5.922;2022-07-29T02:30:18;3.88;;;1.70;;
57567;SDS011;43403;51.948;5.922;2022-07-29T02:32:47;5.68;;;1.80;;
57567;SDS011;43403;51.948;5.922;2022-07-29T02:35:15;5.05;;;1.90;;
57567;SDS011;43403;51.948;5.922;2022-07-29T02:37:43;5.77;;;1.93;;
57567;SDS011;43403;51.948;5.922;2022-07-29T02:40:11;4.30;;;2.08;;
57567;SDS011;43403;51.948;5.922;2022-07-29T02:42:41;6.15;;;1.83;;
57567;SDS011;43403;51.948;5.922;2022-07-29T02:45:09;4.07;;;1.98;;
57567;SDS011;43403;51.948;5.922;2022-07-29T02:47:39;6.00;;;2.03;;
57567;SDS011;43403;51.948;5.922;2022-07-29T02:50:13;5.95;;;2.40;;
57567;SDS011;43403;51.948;5.922;2022-07-29T02:52:44;4.07;;;2.20;;
57567;SDS011;43403;51.948;5.922;2022-07-29T02:55:18;3.90;;;2.22;;
57567;SDS011;43403;51.948;5.922;2022-07-29T02:57:54;4.03;;;1.85;;
57567;SDS011;43403;51.948;5.922;2022-07-29T03:00:27;3.17;;;1.88;;
57567;SDS011;43403;51.948;5.922;2022-07-29T03:02:56;7.28;;;1.92;;
57567;SDS011;43403;51.948;5.922;2022-07-29T03:05:25;4.93;;;1.92;;
57567;SDS011;43403;51.948;5.922;2022-07-29T03:07:56;4.40;;;1.60;;
57567;SDS011;43403;51.948;5.922;2022-07-29T03:10:26;6.47;;;2.20;;
57567;SDS011;43403;51.948;5.922;2022-07-29T03:12:54;3.45;;;1.90;;
57567;SDS011;43403;51.948;5.922;2022-07-29T03:15:21;5.93;;;2.30;;
57567;SDS011;43403;51.948;5.922;2022-07-29T03:17:50;5.13;;;2.10;;
57567;SDS011;43403;51.948;5.922;2022-07-29T03:20:17;9.93;;;2.55;;
57567;SDS011;43403;51.948;5.922;2022-07-29T03:22:44;4.90;;;2.17;;
57567;SDS011;43403;51.948;5.922;2022-07-29T03:25:13;5.55;;;2.33;;
57567;SDS011;43403;51.948;5.922;2022-07-29T03:27:41;5.72;;;2.28;;
57567;SDS011;43403;51.948;5.922;2022-07-29T03:30:09;4.53;;;2.42;;
57567;SDS011;43403;51.948;5.922;2022-07-29T03:32:36;4.82;;;2.47;;
57567;SDS011;43403;51.948;5.922;2022-07-29T03:35:05;7.10;;;3.00;;
57567;SDS011;43403;51.948;5.922;2022-07-29T03:37:32;6.43;;;2.65;;
57567;SDS011;43403;51.948;5.922;2022-07-29T03:40:00;6.30;;;2.63;;
57567;SDS011;43403;51.948;5.922;2022-07-29T03:42:30;5.25;;;2.58;;
57567;SDS011;43403;51.948;5.922;2022-07-29T03:45:00;4.07;;;2.40;;
57567;SDS011;43403;51.948;5.922;2022-07-29T03:47:29;4.45;;;2.63;;
57567;SDS011;43403;51.948;5.922;2022-07-29T03:50:16;4.45;;;2.28;;
57567;SDS011;43403;51.948;5.922;2022-07-29T03:52:45;3.85;;;2.17;;
57567;SDS011;43403;51.948;5.922;2022-07-29T03:55:12;6.55;;;2.70;;
57567;SDS011;43403;51.948;5.922;2022-07-29T03:57:39;3.30;;;2.10;;
57567;SDS011;43403;51.948;5.922;2022-07-29T04:00:07;6.22;;;2.78;;
57567;SDS011;43403;51.948;5.922;2022-07-29T04:02:35;7.88;;;2.63;;
57567;SDS011;43403;51.948;5.922;2022-07-29T04:05:02;5.13;;;2.20;;
57567;SDS011;43403;51.948;5.922;2022-07-29T04:07:29;3.33;;;2.20;;
57567;SDS011;43403;51.948;5.922;2022-07-29T04:09:55;5.35;;;2.92;;
57567;SDS011;43403;51.948;5.922;2022-07-29T04:12:22;7.13;;;2.40;;
57567;SDS011;43403;51.948;5.922;2022-07-29T04:14:48;7.63;;;2.75;;
57567;SDS011;43403;51.948;5.922;2022-07-29T04:17:16;7.82;;;2.83;;
57567;SDS011;43403;51.948;5.922;2022-07-29T04:19:42;4.43;;;2.53;;
57567;SDS011;43403;51.948;5.922;2022-07-29T04:22:09;3.40;;;2.67;;
57567;SDS011;43403;51.948;5.922;2022-07-29T04:24:35;4.85;;;2.70;;
57567;SDS011;43403;51.948;5.922;2022-07-29T04:27:02;4.95;;;2.50;;
57567;SDS011;43403;51.948;5.922;2022-07-29T04:29:28;6.03;;;2.80;;
57567;SDS011;43403;51.948;5.922;2022-07-29T04:31:54;6.75;;;2.75;;
57567;SDS011;43403;51.948;5.922;2022-07-29T04:34:21;4.35;;;2.15;;
57567;SDS011;43403;51.948;5.922;2022-07-29T04:36:53;6.15;;;2.97;;
57567;SDS011;43403;51.948;5.922;2022-07-29T04:39:19;4.32;;;2.58;;
57567;SDS011;43403;51.948;5.922;2022-07-29T04:41:48;5.22;;;2.80;;
57567;SDS011;43403;51.948;5.922;2022-07-29T04:44:17;5.40;;;2.47;;
57567;SDS011;43403;51.948;5.922;2022-07-29T04:46:44;4.70;;;2.50;;
57567;SDS011;43403;51.948;5.922;2022-07-29T04:49:11;5.50;;;2.40;;
57567;SDS011;43403;51.948;5.922;2022-07-29T04:51:38;6.65;;;2.70;;
57567;SDS011;43403;51.948;5.922;2022-07-29T04:54:04;6.78;;;3.13;;
57567;SDS011;43403;51.948;5.922;2022-07-29T04:56:32;6.40;;;2.77;;
57567;SDS011;43403;51.948;5.922;2022-07-29T04:58:58;5.43;;;2.92;;
57567;SDS011;43403;51.948;5.922;2022-07-29T05:01:24;5.18;;;2.92;;
57567;SDS011;43403;51.948;5.922;2022-07-29T05:03:51;4.90;;;2.78;;
57567;SDS011;43403;51.948;5.922;2022-07-29T05:06:25;6.18;;;2.90;;
57567;SDS011;43403;51.948;5.922;2022-07-29T05:08:51;5.68;;;3.28;;
57567;SDS011;43403;51.948;5.922;2022-07-29T05:11:17;5.18;;;2.60;;
57567;SDS011;43403;51.948;5.922;2022-07-29T05:13:48;4.85;;;2.25;;
57567;SDS011;43403;51.948;5.922;2022-07-29T05:16:14;3.90;;;2.63;;
57567;SDS011;43403;51.948;5.922;2022-07-29T05:18:41;12.52;;;3.53;;
57567;SDS011;43403;51.948;5.922;2022-07-29T05:21:08;5.97;;;3.05;;
57567;SDS011;43403;51.948;5.922;2022-07-29T05:23:34;4.15;;;2.63;;
57567;SDS011;43403;51.948;5.922;2022-07-29T05:26:01;7.50;;;2.70;;
57567;SDS011;43403;51.948;5.922;2022-07-29T05:28:27;5.38;;;2.72;;
57567;SDS011;43403;51.948;5.922;2022-07-29T05:30:54;6.95;;;2.63;;
57567;SDS011;43403;51.948;5.922;2022-07-29T05:33:20;3.72;;;2.85;;
57567;SDS011;43403;51.948;5.922;2022-07-29T05:36:02;3.95;;;2.97;;
57567;SDS011;43403;51.948;5.922;2022-07-29T05:38:31;3.88;;;2.88;;
57567;SDS011;43403;51.948;5.922;2022-07-29T05:40:58;4.95;;;2.95;;
57567;SDS011;43403;51.948;5.922;2022-07-29T05:43:26;5.45;;;3.10;;
57567;SDS011;43403;51.948;5.922;2022-07-29T05:45:55;4.28;;;2.58;;
57567;SDS011;43403;51.948;5.922;2022-07-29T05:48:22;5.43;;;2.97;;
57567;SDS011;43403;51.948;5.922;2022-07-29T05:50:49;5.00;;;2.35;;
57567;SDS011;43403;51.948;5.922;2022-07-29T05:53:15;4.15;;;2.50;;
57567;SDS011;43403;51.948;5.922;2022-07-29T05:55:45;4.88;;;2.70;;
57567;SDS011;43403;51.948;5.922;2022-07-29T05:58:11;5.80;;;2.90;;
57567;SDS011;43403;51.948;5.922;2022-07-29T06:00:38;5.45;;;2.80;;
57567;SDS011;43403;51.948;5.922;2022-07-29T06:03:04;6.15;;;2.60;;
57567;SDS011;43403;51.948;5.922;2022-07-29T06:05:31;4.72;;;2.50;;
57567;SDS011;43403;51.948;5.922;2022-07-29T06:07:57;4.63;;;2.58;;
57567;SDS011;43403;51.948;5.922;2022-07-29T06:10:24;5.53;;;2.35;;
57567;SDS011;43403;51.948;5.922;2022-07-29T06:12:52;5.25;;;2.55;;
57567;SDS011;43403;51.948;5.922;2022-07-29T06:15:18;3.97;;;2.63;;
57567;SDS011;43403;51.948;5.922;2022-07-29T06:17:45;5.88;;;2.80;;
57567;SDS011;43403;51.948;5.922;2022-07-29T06:20:27;6.57;;;2.83;;
57567;SDS011;43403;51.948;5.922;2022-07-29T06:22:57;5.97;;;2.33;;
57567;SDS011;43403;51.948;5.922;2022-07-29T06:25:25;5.57;;;2.40;;
57567;SDS011;43403;51.948;5.922;2022-07-29T06:27:53;8.75;;;2.80;;
57567;SDS011;43403;51.948;5.922;2022-07-29T06:30:20;4.78;;;2.42;;
57567;SDS011;43403;51.948;5.922;2022-07-29T06:32:46;5.95;;;2.50;;
57567;SDS011;43403;51.948;5.922;2022-07-29T06:35:13;5.45;;;2.60;;
57567;SDS011;43403;51.948;5.922;2022-07-29T06:37:59;3.28;;;2.58;;
57567;SDS011;43403;51.948;5.922;2022-07-29T06:40:26;8.93;;;2.67;;
57567;SDS011;43403;51.948;5.922;2022-07-29T06:43:11;5.00;;;1.92;;
57567;SDS011;43403;51.948;5.922;2022-07-29T06:45:37;5.80;;;2.85;;
57567;SDS011;43403;51.948;5.922;2022-07-29T06:48:07;5.28;;;2.70;;
57567;SDS011;43403;51.948;5.922;2022-07-29T06:50:34;5.30;;;3.00;;
57567;SDS011;43403;51.948;5.922;2022-07-29T06:53:00;4.22;;;2.60;;
57567;SDS011;43403;51.948;5.922;2022-07-29T06:55:27;6.10;;;2.60;;
57567;SDS011;43403;51.948;5.922;2022-07-29T06:57:53;5.20;;;2.60;;
57567;SDS011;43403;51.948;5.922;2022-07-29T07:00:20;7.10;;;2.40;;
57567;SDS011;43403;51.948;5.922;2022-07-29T07:02:46;4.30;;;2.47;;
57567;SDS011;43403;51.948;5.922;2022-07-29T07:05:13;6.32;;;2.47;;
57567;SDS011;43403;51.948;5.922;2022-07-29T07:07:39;5.45;;;2.50;;
57567;SDS011;43403;51.948;5.922;2022-07-29T07:10:05;3.25;;;2.03;;
57567;SDS011;43403;51.948;5.922;2022-07-29T07:12:32;7.32;;;2.53;;
57567;SDS011;43403;51.948;5.922;2022-07-29T07:14:58;6.30;;;2.40;;
57567;SDS011;43403;51.948;5.922;2022-07-29T07:17:25;5.95;;;2.22;;
57567;SDS011;43403;51.948;5.922;2022-07-29T07:19:51;6.47;;;2.58;;
57567;SDS011;43403;51.948;5.922;2022-07-29T07:22:18;5.20;;;2.50;;
57567;SDS011;43403;51.948;5.922;2022-07-29T07:24:44;4.13;;;2.10;;
57567;SDS011;43403;51.948;5.922;2022-07-29T07:27:11;4.72;;;2.33;;
57567;SDS011;43403;51.948;5.922;2022-07-29T07:29:37;7.50;;;2.55;;
57567;SDS011;43403;51.948;5.922;2022-07-29T07:32:09;4.10;;;2.22;;
57567;SDS011;43403;51.948;5.922;2022-07-29T07:34:36;4.18;;;2.38;;
57567;SDS011;43403;51.948;5.922;2022-07-29T07:37:04;5.05;;;2.63;;
57567;SDS011;43403;51.948;5.922;2022-07-29T07:39:31;5.63;;;2.47;;
57567;SDS011;43403;51.948;5.922;2022-07-29T07:41:58;5.85;;;2.50;;
57567;SDS011;43403;51.948;5.922;2022-07-29T07:44:24;3.95;;;2.45;;
57567;SDS011;43403;51.948;5.922;2022-07-29T07:46:51;7.80;;;2.83;;
57567;SDS011;43403;51.948;5.922;2022-07-29T07:49:18;6.00;;;2.40;;
57567;SDS011;43403;51.948;5.922;2022-07-29T07:51:44;8.13;;;2.55;;
57567;SDS011;43403;51.948;5.922;2022-07-29T07:54:16;4.25;;;2.53;;
57567;SDS011;43403;51.948;5.922;2022-07-29T07:56:45;7.70;;;2.38;;
57567;SDS011;43403;51.948;5.922;2022-07-29T07:59:18;4.57;;;2.60;;
57567;SDS011;43403;51.948;5.922;2022-07-29T08:01:44;4.63;;;2.38;;
57567;SDS011;43403;51.948;5.922;2022-07-29T08:04:20;3.97;;;2.30;;
57567;SDS011;43403;51.948;5.922;2022-07-29T08:06:53;5.88;;;2.35;;
57567;SDS011;43403;51.948;5.922;2022-07-29T08:09:23;5.43;;;2.60;;
57567;SDS011;43403;51.948;5.922;2022-07-29T08:11:56;6.47;;;2.85;;
57567;SDS011;43403;51.948;5.922;2022-07-29T08:14:24;5.05;;;2.90;;
57567;SDS011;43403;51.948;5.922;2022-07-29T08:16:51;5.63;;;2.95;;
57567;SDS011;43403;51.948;5.922;2022-07-29T08:19:17;10.30;;;2.90;;
57567;SDS011;43403;51.948;5.922;2022-07-29T08:21:44;7.47;;;2.47;;
57567;SDS011;43403;51.948;5.922;2022-07-29T08:24:11;5.30;;;2.47;;
57567;SDS011;43403;51.948;5.922;2022-07-29T08:26:56;8.05;;;2.75;;
57567;SDS011;43403;51.948;5.922;2022-07-29T08:29:22;6.82;;;2.50;;
57567;SDS011;43403;51.948;5.922;2022-07-29T08:31:49;3.90;;;2.47;;
57567;SDS011;43403;51.948;5.922;2022-07-29T08:34:16;3.83;;;2.20;;
57567;SDS011;43403;51.948;5.922;2022-07-29T08:36:42;4.97;;;2.45;;
57567;SDS011;43403;51.948;5.922;2022-07-29T08:39:12;5.30;;;2.38;;
57567;SDS011;43403;51.948;5.922;2022-07-29T08:41:38;3.97;;;2.35;;
57567;SDS011;43403;51.948;5.922;2022-07-29T08:44:05;5.78;;;2.70;;
57567;SDS011;43403;51.948;5.922;2022-07-29T08:46:31;5.57;;;2.70;;
57567;SDS011;43403;51.948;5.922;2022-07-29T08:48:58;7.60;;;2.60;;
57567;SDS011;43403;51.948;5.922;2022-07-29T08:51:24;7.00;;;2.63;;
57567;SDS011;43403;51.948;5.922;2022-07-29T08:53:51;4.30;;;2.85;;
57567;SDS011;43403;51.948;5.922;2022-07-29T08:56:19;10.55;;;3.00;;
57567;SDS011;43403;51.948;5.922;2022-07-29T08:58:46;6.32;;;3.10;;
57567;SDS011;43403;51.948;5.922;2022-07-29T09:01:20;7.68;;;3.17;;
57567;SDS011;43403;51.948;5.922;2022-07-29T09:04:02;6.75;;;2.80;;
57567;SDS011;43403;51.948;5.922;2022-07-29T09:06:31;8.13;;;3.10;;
57567;SDS011;43403;51.948;5.922;2022-07-29T09:09:00;3.92;;;2.28;;
57567;SDS011;43403;51.948;5.922;2022-07-29T09:11:27;11.82;;;3.38;;
57567;SDS011;43403;51.948;5.922;2022-07-29T09:13:54;4.30;;;2.58;;
57567;SDS011;43403;51.948;5.922;2022-07-29T09:16:21;5.90;;;3.20;;
57567;SDS011;43403;51.948;5.922;2022-07-29T09:19:18;5.15;;;2.80;;
57567;SDS011;43403;51.948;5.922;2022-07-29T09:21:52;4.53;;;2.60;;
57567;SDS011;43403;51.948;5.922;2022-07-29T09:27:22;4.45;;;2.63;;
57567;SDS011;43403;51.948;5.922;2022-07-29T09:29:55;8.38;;;3.35;;
57567;SDS011;43403;51.948;5.922;2022-07-29T09:32:23;7.05;;;3.15;;
57567;SDS011;43403;51.948;5.922;2022-07-29T09:34:49;6.97;;;2.80;;
57567;SDS011;43403;51.948;5.922;2022-07-29T09:37:27;7.80;;;2.97;;
57567;SDS011;43403;51.948;5.922;2022-07-29T09:39:55;6.38;;;3.13;;
57567;SDS011;43403;51.948;5.922;2022-07-29T09:42:28;12.52;;;3.30;;
57567;SDS011;43403;51.948;5.922;2022-07-29T09:44:56;11.57;;;3.60;;
57567;SDS011;43403;51.948;5.922;2022-07-29T09:47:22;6.97;;;3.10;;
57567;SDS011;43403;51.948;5.922;2022-07-29T09:50:07;8.52;;;2.92;;
57567;SDS011;43403;51.948;5.922;2022-07-29T09:52:41;10.73;;;3.30;;
57567;SDS011;43403;51.948;5.922;2022-07-29T09:55:11;9.17;;;3.10;;
57567;SDS011;43403;51.948;5.922;2022-07-29T09:57:43;7.80;;;2.80;;
57567;SDS011;43403;51.948;5.922;2022-07-29T10:00:11;9.50;;;3.30;;
57567;SDS011;43403;51.948;5.922;2022-07-29T10:02:41;5.65;;;3.00;;
57567;SDS011;43403;51.948;5.922;2022-07-29T10:05:22;7.53;;;3.25;;
57567;SDS011;43403;51.948;5.922;2022-07-29T10:08:02;6.45;;;3.13;;
57567;SDS011;43403;51.948;5.922;2022-07-29T10:10:30;9.90;;;3.15;;
57567;SDS011;43403;51.948;5.922;2022-07-29T10:12:58;5.55;;;2.58;;
57567;SDS011;43403;51.948;5.922;2022-07-29T10:15:41;7.40;;;3.28;;
57567;SDS011;43403;51.948;5.922;2022-07-29T10:18:12;7.80;;;3.22;;
57567;SDS011;43403;51.948;5.922;2022-07-29T10:20:40;6.53;;;3.17;;
57567;SDS011;43403;51.948;5.922;2022-07-29T10:23:10;6.70;;;3.25;;
57567;SDS011;43403;51.948;5.922;2022-07-29T10:25:44;5.45;;;2.92;;
57567;SDS011;43403;51.948;5.922;2022-07-29T10:28:14;4.00;;;2.63;;
57567;SDS011;43403;51.948;5.922;2022-07-29T10:30:42;7.30;;;2.97;;
57567;SDS011;43403;51.948;5.922;2022-07-29T10:35:44;8.18;;;3.35;;
57567;SDS011;43403;51.948;5.922;2022-07-29T10:44:16;8.68;;;3.25;;
57567;SDS011;43403;51.948;5.922;2022-07-29T10:46:49;12.40;;;3.42;;
57567;SDS011;43403;51.948;5.922;2022-07-29T10:49:17;6.20;;;2.47;;
57567;SDS011;43403;51.948;5.922;2022-07-29T10:51:54;6.35;;;3.13;;
57567;SDS011;43403;51.948;5.922;2022-07-29T10:59:39;6.47;;;2.88;;
57567;SDS011;43403;51.948;5.922;2022-07-29T11:02:42;6.25;;;2.88;;
57567;SDS011;43403;51.948;5.922;2022-07-29T11:10:46;8.07;;;3.10;;
57567;SDS011;43403;51.948;5.922;2022-07-29T11:13:41;10.15;;;3.85;;
57567;SDS011;43403;51.948;5.922;2022-07-29T11:16:09;8.93;;;3.28;;
57567;SDS011;43403;51.948;5.922;2022-07-29T11:19:05;5.72;;;3.33;;
57567;SDS011;43403;51.948;5.922;2022-07-29T11:21:56;5.90;;;3.20;;
57567;SDS011;43403;51.948;5.922;2022-07-29T11:24:31;5.63;;;3.25;;
57567;SDS011;43403;51.948;5.922;2022-07-29T11:29:39;5.82;;;3.35;;
57567;SDS011;43403;51.948;5.922;2022-07-29T11:32:18;5.82;;;3.05;;
57567;SDS011;43403;51.948;5.922;2022-07-29T11:34:49;6.85;;;3.20;;
57567;SDS011;43403;51.948;5.922;2022-07-29T11:43:49;6.25;;;2.90;;
57567;SDS011;43403;51.948;5.922;2022-07-29T11:49:19;7.80;;;3.47;;
57567;SDS011;43403;51.948;5.922;2022-07-29T11:51:58;7.10;;;2.90;;
57567;SDS011;43403;51.948;5.922;2022-07-29T11:54:31;4.63;;;2.95;;
57567;SDS011;43403;51.948;5.922;2022-07-29T11:57:20;6.43;;;2.67;;
57567;SDS011;43403;51.948;5.922;2022-07-29T11:59:47;7.80;;;3.10;;
57567;SDS011;43403;51.948;5.922;2022-07-29T12:02:14;10.30;;;3.42;;
57567;SDS011;43403;51.948;5.922;2022-07-29T12:07:36;5.32;;;3.08;;
57567;SDS011;43403;51.948;5.922;2022-07-29T12:10:12;4.50;;;2.63;;
57567;SDS011;43403;51.948;5.922;2022-07-29T12:12:55;8.20;;;3.20;;
57567;SDS011;43403;51.948;5.922;2022-07-29T12:15:21;9.70;;;2.78;;
57567;SDS011;43403;51.948;5.922;2022-07-29T12:18:11;8.00;;;3.20;;
57567;SDS011;43403;51.948;5.922;2022-07-29T12:20:39;10.88;;;2.63;;
57567;SDS011;43403;51.948;5.922;2022-07-29T12:23:06;8.40;;;2.95;;
57567;SDS011;43403;51.948;5.922;2022-07-29T12:25:35;5.13;;;2.80;;
57567;SDS011;43403;51.948;5.922;2022-07-29T12:28:04;8.45;;;2.40;;
57567;SDS011;43403;51.948;5.922;2022-07-29T12:33:10;7.32;;;2.90;;
57567;SDS011;43403;51.948;5.922;2022-07-29T12:35:47;4.20;;;2.25;;
57567;SDS011;43403;51.948;5.922;2022-07-29T12:38:32;4.88;;;2.10;;
57567;SDS011;43403;51.948;5.922;2022-07-29T12:41:01;4.40;;;2.17;;
57567;SDS011;43403;51.948;5.922;2022-07-29T12:43:29;3.65;;;2.05;;
57567;SDS011;43403;51.948;5.922;2022-07-29T12:45:56;4.17;;;1.90;;
57567;SDS011;43403;51.948;5.922;2022-07-29T12:48:33;4.57;;;2.00;;
57567;SDS011;43403;51.948;5.922;2022-07-29T12:51:01;3.67;;;1.52;;
57567;SDS011;43403;51.948;5.922;2022-07-29T12:53:29;7.10;;;2.30;;
57567;SDS011;43403;51.948;5.922;2022-07-29T12:55:56;3.83;;;1.90;;
57567;SDS011;43403;51.948;5.922;2022-07-29T12:58:41;7.07;;;1.75;;
57567;SDS011;43403;51.948;5.922;2022-07-29T13:01:18;3.08;;;1.67;;
57567;SDS011;43403;51.948;5.922;2022-07-29T13:03:53;6.45;;;1.98;;
57567;SDS011;43403;51.948;5.922;2022-07-29T13:14:34;4.20;;;2.08;;
57567;SDS011;43403;51.948;5.922;2022-07-29T13:19:37;3.47;;;1.60;;
57567;SDS011;43403;51.948;5.922;2022-07-29T13:22:11;3.97;;;1.73;;
57567;SDS011;43403;51.948;5.922;2022-07-29T13:24:50;1.75;;;1.55;;
57567;SDS011;43403;51.948;5.922;2022-07-29T13:27:22;6.63;;;2.15;;
57567;SDS011;43403;51.948;5.922;2022-07-29T13:29:50;4.13;;;1.80;;
57567;SDS011;43403;51.948;5.922;2022-07-29T13:32:19;9.43;;;2.08;;
57567;SDS011;43403;51.948;5.922;2022-07-29T13:34:54;8.82;;;2.10;;
57567;SDS011;43403;51.948;5.922;2022-07-29T13:39:48;6.13;;;2.00;;
57567;SDS011;43403;51.948;5.922;2022-07-29T13:42:18;6.38;;;1.80;;
57567;SDS011;43403;51.948;5.922;2022-07-29T13:44:45;5.53;;;1.73;;
57567;SDS011;43403;51.948;5.922;2022-07-29T13:47:11;6.20;;;2.22;;
57567;SDS011;43403;51.948;5.922;2022-07-29T13:49:38;5.55;;;2.13;;
57567;SDS011;43403;51.948;5.922;2022-07-29T13:52:05;5.25;;;2.45;;
57567;SDS011;43403;51.948;5.922;2022-07-29T13:54:33;5.10;;;2.00;;
57567;SDS011;43403;51.948;5.922;2022-07-29T13:57:07;3.65;;;2.05;;
57567;SDS011;43403;51.948;5.922;2022-07-29T13:59:34;7.80;;;2.30;;
57567;SDS011;43403;51.948;5.922;2022-07-29T14:02:00;5.90;;;1.90;;
57567;SDS011;43403;51.948;5.922;2022-07-29T14:04:27;5.60;;;2.25;;
57567;SDS011;43403;51.948;5.922;2022-07-29T14:06:53;4.05;;;1.95;;
57567;SDS011;43403;51.948;5.922;2022-07-29T14:09:20;4.93;;;1.97;;
57567;SDS011;43403;51.948;5.922;2022-07-29T14:11:46;3.10;;;2.03;;
57567;SDS011;43403;51.948;5.922;2022-07-29T14:14:15;5.03;;;2.10;;
57567;SDS011;43403;51.948;5.922;2022-07-29T14:16:42;7.28;;;2.15;;
57567;SDS011;43403;51.948;5.922;2022-07-29T14:19:15;3.47;;;1.98;;
57567;SDS011;43403;51.948;5.922;2022-07-29T14:21:42;3.10;;;1.92;;
57567;SDS011;43403;51.948;5.922;2022-07-29T14:24:10;6.60;;;2.00;;
57567;SDS011;43403;51.948;5.922;2022-07-29T14:26:46;4.47;;;1.92;;
57567;SDS011;43403;51.948;5.922;2022-07-29T14:29:13;4.45;;;1.88;;
57567;SDS011;43403;51.948;5.922;2022-07-29T14:31:40;5.03;;;2.15;;
57567;SDS011;43403;51.948;5.922;2022-07-29T14:34:06;4.63;;;2.03;;
57567;SDS011;43403;51.948;5.922;2022-07-29T14:36:32;3.15;;;2.03;;
57567;SDS011;43403;51.948;5.922;2022-07-29T14:38:59;4.32;;;2.25;;
57567;SDS011;43403;51.948;5.922;2022-07-29T14:41:25;6.82;;;2.20;;
57567;SDS011;43403;51.948;5.922;2022-07-29T14:43:54;4.80;;;2.20;;
57567;SDS011;43403;51.948;5.922;2022-07-29T14:46:20;6.15;;;2.35;;
57567;SDS011;43403;51.948;5.922;2022-07-29T14:48:47;4.65;;;2.25;;
57567;SDS011;43403;51.948;5.922;2022-07-29T14:51:13;4.68;;;2.30;;
57567;SDS011;43403;51.948;5.922;2022-07-29T14:53:39;4.28;;;2.13;;
57567;SDS011;43403;51.948;5.922;2022-07-29T14:56:06;4.53;;;2.08;;
57567;SDS011;43403;51.948;5.922;2022-07-29T14:58:52;5.15;;;2.33;;
57567;SDS011;43403;51.948;5.922;2022-07-29T15:01:19;4.68;;;2.28;;
57567;SDS011;43403;51.948;5.922;2022-07-29T15:03:45;8.93;;;2.57;;
57567;SDS011;43403;51.948;5.922;2022-07-29T15:06:12;5.45;;;2.20;;
57567;SDS011;43403;51.948;5.922;2022-07-29T15:08:38;4.90;;;2.17;;
57567;SDS011;43403;51.948;5.922;2022-07-29T15:11:05;3.17;;;1.98;;
57567;SDS011;43403;51.948;5.922;2022-07-29T15:13:31;3.50;;;2.08;;
57567;SDS011;43403;51.948;5.922;2022-07-29T15:15:58;5.10;;;1.98;;
57567;SDS011;43403;51.948;5.922;2022-07-29T15:18:28;4.25;;;2.20;;
57567;SDS011;43403;51.948;5.922;2022-07-29T15:20:55;3.35;;;2.10;;
57567;SDS011;43403;51.948;5.922;2022-07-29T15:23:21;7.30;;;2.10;;
57567;SDS011;43403;51.948;5.922;2022-07-29T15:25:48;4.43;;;2.20;;
57567;SDS011;43403;51.948;5.922;2022-07-29T15:28:14;5.90;;;2.30;;
57567;SDS011;43403;51.948;5.922;2022-07-29T15:30:40;2.85;;;2.10;;
57567;SDS011;43403;51.948;5.922;2022-07-29T15:33:07;5.93;;;2.45;;
57567;SDS011;43403;51.948;5.922;2022-07-29T15:35:37;5.25;;;2.28;;
57567;SDS011;43403;51.948;5.922;2022-07-29T15:38:06;5.60;;;2.33;;
57567;SDS011;43403;51.948;5.922;2022-07-29T15:40:33;6.10;;;2.20;;
57567;SDS011;43403;51.948;5.922;2022-07-29T15:43:03;4.60;;;1.90;;
57567;SDS011;43403;51.948;5.922;2022-07-29T15:45:38;5.97;;;2.13;;
57567;SDS011;43403;51.948;5.922;2022-07-29T15:48:07;3.42;;;2.00;;
57567;SDS011;43403;51.948;5.922;2022-07-29T15:50:39;4.45;;;2.13;;
57567;SDS011;43403;51.948;5.922;2022-07-29T15:53:06;3.50;;;1.90;;
57567;SDS011;43403;51.948;5.922;2022-07-29T15:55:32;6.30;;;2.00;;
57567;SDS011;43403;51.948;5.922;2022-07-29T15:57:59;6.32;;;1.80;;
57567;SDS011;43403;51.948;5.922;2022-07-29T16:00:26;3.78;;;1.63;;
57567;SDS011;43403;51.948;5.922;2022-07-29T16:02:52;5.03;;;1.83;;
57567;SDS011;43403;51.948;5.922;2022-07-29T16:05:19;6.95;;;2.15;;
57567;SDS011;43403;51.948;5.922;2022-07-29T16:07:45;3.90;;;1.90;;
57567;SDS011;43403;51.948;5.922;2022-07-29T16:10:12;3.40;;;1.90;;